MSC Magnifica — 3FLO4 — position and weather

sailwx.info

Track history (hours):
 
Tides and Currents Weather Stations Pressure Air Temp Water Temp Dewpoint Dewpoint Depression Visibility Wind Speed Wind Dir Waves Ship Positions

MSC Magnifica

Last reported at 2017-Jun-29 01:31 UTC. Time now 2017-Jun-29 01:57 UTC.
Position N 59°55' E 025°41'.

Length 293 m; draft 8 m.

Type: Ship. MMSI: 352594000.

Date/timePositionNaut miles runAvg speedWind from/ knotsBaromVisibWave heightAir tempDewpointWater temp
2017-Jun-29 01:31N 59°55' E 025°41'917.9
2017-Jun-29 01:01N 59°57' E 025°58'917.9
2017-Jun-29 00:30N 59°59' E 026°16'917.7
2017-Jun-29 00:01N 60°01' E 026°33'917.7
2017-Jun-28 23:31N 60°00' E 026°50'917.2
2017-Jun-28 23:01N 60°00' E 027°07'917.9
2017-Jun-28 22:30N 60°05' E 027°23'917.6
2017-Jun-28 22:00N 60°10' E 027°38'816.2
2017-Jun-28 21:30N 60°11' E 027°54'917.7
2017-Jun-28 21:00N 60°09' E 028°11'917.2
2017-Jun-28 20:30N 60°04' E 028°26'917.6
2017-Jun-28 20:00N 60°03' E 028°43'918.0
2017-Jun-28 19:30N 60°02' E 029°01'1019.6
2017-Jun-28 19:00N 60°02' E 029°21'510.9
2017-Jun-28 18:30N 60°01' E 029°32'713.8
2017-Jun-28 18:00N 59°59' E 029°45'5 9.9
2017-Jun-28 17:30N 59°57' E 029°53'510.8
2017-Jun-28 17:00N 59°56' E 030°04'3 6.9
2017-Jun-28 16:30N 59°57' E 030°11'0 0.3
2017-Jun-28 16:01N 59°57' E 030°11'0 0.0
2017-Jun-28 15:28N 59°57' E 030°11'0 0.0
2017-Jun-28 15:00N 59°57' E 030°11'0 0.0
2017-Jun-28 13:58N 59°57' E 030°11'0 0.0
2017-Jun-28 13:30N 59°57' E 030°11'0 0.0
2017-Jun-28 13:00N 59°57' E 030°11'0 0.0
2017-Jun-28 12:28N 59°57' E 030°11'0 0.0
2017-Jun-28 11:58N 59°57' E 030°11'0 0.0
2017-Jun-28 11:30N 59°57' E 030°11'0 0.0
2017-Jun-28 10:57N 59°57' E 030°11'0 0.0
2017-Jun-28 10:29N 59°57' E 030°11'0 0.0
2017-Jun-28 09:58N 59°57' E 030°11'0 0.0
2017-Jun-28 09:30N 59°57' E 030°11'0 0.0
2017-Jun-28 08:59N 59°57' E 030°11'0 0.0
2017-Jun-28 08:29N 59°57' E 030°11'0 0.0
2017-Jun-28 07:58N 59°57' E 030°11'0 0.0
2017-Jun-28 07:30N 59°57' E 030°11'0 0.0
2017-Jun-28 06:58N 59°57' E 030°11'0 0.0
2017-Jun-28 06:30N 59°57' E 030°11'0 0.0
2017-Jun-28 06:00N 59°57' E 030°11'0 0.0
2017-Jun-28 05:28N 59°57' E 030°11'0 0.0
2017-Jun-28 04:59N 59°57' E 030°11'0 0.0
2017-Jun-28 04:28N 59°57' E 030°11'0 0.0
2017-Jun-28 03:59N 59°57' E 030°11'0 0.0
2017-Jun-28 03:29N 59°57' E 030°11'0 0.3
2017-Jun-28 03:00N 59°57' E 030°11'4 7.0
2017-Jun-28 02:30N 59°56' E 030°04'5 9.5
2017-Jun-28 02:00N 59°56' E 029°55'510.4
2017-Jun-28 01:30N 59°59' E 029°46'4 8.2
2017-Jun-28 01:00N 60°00' E 029°38'814.7
2017-Jun-28 00:29N 60°02' E 029°23'916.8
2017-Jun-27 23:57N 60°02' E 029°05'613.9
2017-Jun-27 23:30N 60°02' E 028°53'713.8
2017-Jun-27 23:00N 60°02' E 028°39'713.9
2017-Jun-27 22:31N 60°03' E 028°25'713.7
2017-Jun-27 22:01N 60°07' E 028°14'713.7
2017-Jun-27 21:30N 60°09' E 028°01'713.6
2017-Jun-27 21:00N 60°11' E 027°47'714.0
2017-Jun-27 20:31N 60°07' E 027°35'714.2
2017-Jun-27 20:00N 60°04' E 027°23'714.0
2017-Jun-27 19:30N 60°00' E 027°11'612.7
2017-Jun-27 19:00N 59°58' E 026°59'714.1
2017-Jun-27 18:31N 59°59' E 026°45'714.0
2017-Jun-27 18:00N 59°58' E 026°31'714.3
2017-Jun-27 17:31N 59°57' E 026°17'714.2
2017-Jun-27 17:01N 59°54' E 026°04'714.3
2017-Jun-27 16:31N 59°53' E 025°50'714.5
2017-Jun-27 16:00N 59°51' E 025°36'714.3
2017-Jun-27 15:31N 59°50' E 025°22'714.6
2017-Jun-27 15:00N 59°48' E 025°08'612.7
2017-Jun-27 14:30N 59°51' E 024°56'1413.9
2017-Jun-27 13:30N 60°05' E 024°53'4 8.7
2017-Jun-27 13:00N 60°09' E 024°55'0 0.4
2017-Jun-27 12:28N 60°09' E 024°55'0 0.0
2017-Jun-27 11:58N 60°09' E 024°55'0 0.0
2017-Jun-27 11:28N 60°09' E 024°55'0 0.0
2017-Jun-27 10:58N 60°09' E 024°55'0 0.0
2017-Jun-27 10:28N 60°09' E 024°55'0 0.0
2017-Jun-27 09:55N 60°09' E 024°55'0 0.0
2017-Jun-27 09:28N 60°09' E 024°55'0 0.0
2017-Jun-27 08:58N 60°09' E 024°55'0 0.0
2017-Jun-27 08:28N 60°09' E 024°55'0 0.0
2017-Jun-27 07:55N 60°09' E 024°55'0 0.0
2017-Jun-27 07:28N 60°09' E 024°55'0 0.0
2017-Jun-27 06:58N 60°09' E 024°55'0 0.0
2017-Jun-27 06:28N 60°09' E 024°55'0 0.0
2017-Jun-27 05:58N 60°09' E 024°55'0 0.0
2017-Jun-27 05:28N 60°09' E 024°55'0 0.2
2017-Jun-27 05:01N 60°09' E 024°55'5 9.6
2017-Jun-27 04:30N 60°04' E 024°54'612.9
2017-Jun-27 04:00N 59°58' E 024°56'714.8
2017-Jun-27 03:30N 59°51' E 024°54'713.4
2017-Jun-27 03:00N 59°46' E 024°44'815.1
2017-Jun-27 02:31N 59°44' E 024°30'816.1
2017-Jun-27 02:01N 59°42' E 024°14'816.0
2017-Jun-27 01:31N 59°40' E 023°59'816.0
2017-Jun-27 01:01N 59°37' E 023°44'815.9
2017-Jun-27 00:30N 59°35' E 023°29'815.8
2017-Jun-27 00:01N 59°32' E 023°14'815.9
2017-Jun-26 23:31N 59°30' E 022°59'816.0
2017-Jun-26 23:00N 59°28' E 022°44'815.6
2017-Jun-26 22:30N 59°23' E 022°31'815.5
2017-Jun-26 22:00N 59°19' E 022°19'815.8
2017-Jun-26 21:30N 59°14' E 022°07'815.9
2017-Jun-26 21:00N 59°09' E 021°55'816.4
2017-Jun-26 20:30N 59°03' E 021°43'816.4
2017-Jun-26 20:00N 58°57' E 021°33'816.3
2017-Jun-26 19:30N 58°50' E 021°24'816.3
2017-Jun-26 19:00N 58°44' E 021°14'816.5
2017-Jun-26 18:30N 58°37' E 021°04'816.5
2017-Jun-26 18:00N 58°31' E 020°55'18416.1
2017-Jun-26 06:36N 56°13' E 017°09'216.6
2017-Jun-26 06:28N 56°12' E 017°06'816.7
2017-Jun-26 06:00N 56°07' E 016°55'816.5
2017-Jun-26 05:30N 56°03' E 016°43'816.5
2017-Jun-26 05:01N 55°58' E 016°30'816.1
2017-Jun-26 04:30N 55°54' E 016°17'815.8
2017-Jun-26 04:01N 55°50' E 016°06'816.1
2017-Jun-26 03:31N 55°46' E 015°53'816.7
2017-Jun-26 03:00N 55°43' E 015°40'816.8
2017-Jun-26 02:31N 55°38' E 015°27'816.9
2017-Jun-26 02:01N 55°34' E 015°14'816.6
2017-Jun-26 01:30N 55°31' E 015°00'816.5
2017-Jun-26 01:00N 55°27' E 014°47'816.2
2017-Jun-26 00:30N 55°22' E 014°36'816.4
2017-Jun-26 00:00N 55°16' E 014°27'816.4
2017-Jun-25 23:30N 55°09' E 014°19'816.3
2017-Jun-25 23:00N 55°03' E 014°10'816.5
2017-Jun-25 22:30N 54°59' E 013°56'816.8
2017-Jun-25 22:00N 54°57' E 013°43'816.8
2017-Jun-25 21:30N 54°54' E 013°29'1616.6
2017-Jun-25 20:32N 54°49' E 013°02'016.2
2017-Jun-25 20:31N 54°49' E 013°01'2416.2
2017-Jun-25 19:02N 54°38' E 012°25'016.7
2017-Jun-25 19:00N 54°38' E 012°24'2914.7
2017-Jun-25 17:02N 54°11' E 012°06'1 0.1
2017-Jun-25 05:00N 54°10' E 012°06'4 5.3
2017-Jun-25 04:20N 54°13' E 012°04'6 6.5
2017-Jun-25 03:26N 54°18' E 011°59'5 9.0
2017-Jun-25 02:56N 54°22' E 011°56'10 7.2
2017-Jun-25 01:32N 54°28' E 012°10'0 8.4
2017-Jun-25 01:30N 54°28' E 012°11'4 8.5
2017-Jun-25 01:00N 54°33' E 012°12'4 8.1
2017-Jun-25 00:30N 54°36' E 012°15'4 8.1
2017-Jun-25 00:00N 54°40' E 012°19'27 8.1
2017-Jun-24 20:39N 55°04' E 012°39'2 8.3
2017-Jun-24 20:28N 55°06' E 012°39'4 8.5
2017-Jun-24 20:00N 55°10' E 012°38'4 8.8
2017-Jun-24 19:30N 55°14' E 012°38'4 8.6
2017-Jun-24 19:00N 55°18' E 012°37'4 8.6
2017-Jun-24 18:30N 55°23' E 012°38'4 8.7
2017-Jun-24 18:00N 55°27' E 012°40'5 9.2
2017-Jun-24 17:30N 55°31' E 012°42'3 6.5
2017-Jun-24 17:00N 55°35' E 012°42'3 6.7
2017-Jun-24 16:30N 55°38' E 012°42'611.7
2017-Jun-24 16:00N 55°44' E 012°40'1 2.5
2017-Jun-24 15:27N 55°43' E 012°38'0 0.0
2017-Jun-24 15:00N 55°43' E 012°38'0 0.0
2017-Jun-24 13:59N 55°43' E 012°38'0 0.0
2017-Jun-24 13:29N 55°43' E 012°38'0 0.0
2017-Jun-24 12:59N 55°43' E 012°38'0 0.0
2017-Jun-24 12:29N 55°43' E 012°38'0 0.0
2017-Jun-24 11:59N 55°43' E 012°38'0 0.0
2017-Jun-24 11:29N 55°43' E 012°38'0 0.0
2017-Jun-24 10:59N 55°43' E 012°38'0 0.0
2017-Jun-24 10:29N 55°43' E 012°38'0 0.0
2017-Jun-24 09:59N 55°43' E 012°38'0 0.0
2017-Jun-24 09:29N 55°43' E 012°38'0 0.0
2017-Jun-24 08:59N 55°43' E 012°38'0 0.0
2017-Jun-24 08:28N 55°43' E 012°38'0 0.0
2017-Jun-24 07:58N 55°43' E 012°38'0 0.0
2017-Jun-24 07:28N 55°43' E 012°38'0 0.0
2017-Jun-24 06:58N 55°43' E 012°38'0 0.0
2017-Jun-24 06:31N 55°43' E 012°38'3 5.1
2017-Jun-24 06:01N 55°45' E 012°41'714.6
2017-Jun-24 05:31N 55°52' E 012°45'815.3
2017-Jun-24 05:00N 55°59' E 012°41'714.8
2017-Jun-24 04:31N 56°06' E 012°34'815.4
2017-Jun-24 04:01N 56°10' E 012°23'714.9
2017-Jun-24 03:31N 56°14' E 012°12'714.4
2017-Jun-24 03:00N 56°19' E 012°03'4315.5
2017-Jun-24 00:15N 57°01' E 011°42'415.5
2017-Jun-23 23:58N 57°05' E 011°39'715.3
2017-Jun-23 23:30N 57°11' E 011°35'815.3
2017-Jun-23 23:00N 57°19' E 011°30'815.3
2017-Jun-23 22:30N 57°26' E 011°25'714.7
2017-Jun-23 22:00N 57°31' E 011°17'815.4
2017-Jun-23 21:30N 57°37' E 011°06'815.5
2017-Jun-23 20:58N 57°42' E 010°54'715.2
2017-Jun-23 20:30N 57°47' E 010°44'815.0
2017-Jun-23 20:00N 57°47' E 010°30'815.5
2017-Jun-23 19:30N 57°46' E 010°16'3315.5
2017-Jun-23 17:23N 57°44' E 009°14'616.0
2017-Jun-23 16:59N 57°44' E 009°03'1316.5
2017-Jun-23 16:12N 57°43' E 008°38'416.3
2017-Jun-23 15:58N 57°43' E 008°31'3216.1
2017-Jun-23 14:00N 57°42' E 007°32'815.9
2017-Jun-23 13:30N 57°42' E 007°17'816.2
2017-Jun-23 13:00N 57°42' E 007°02'816.3
2017-Jun-23 12:30N 57°42' E 006°47'815.8
2017-Jun-23 12:00N 57°44' E 006°32'815.9
2017-Jun-23 11:30N 57°49' E 006°21'815.8
2017-Jun-23 11:00N 57°54' E 006°09'815.6
2017-Jun-23 10:30N 57°59' E 005°58'816.1
2017-Jun-23 09:59N 58°04' E 005°46'916.8
2017-Jun-23 09:28N 58°10' E 005°34'916.3
2017-Jun-23 08:56N 58°16' E 005°21'816.5
2017-Jun-23 08:28N 58°21' E 005°11'816.3
2017-Jun-23 08:00N 58°27' E 005°01'816.0
2017-Jun-23 07:30N 58°32' E 004°50'816.3
2017-Jun-23 07:00N 58°38' E 004°39'12416.3
2017-Jun-22 23:23N 60°42' E 004°20'617.0
2017-Jun-22 23:01N 60°48' E 004°24'815.1
2017-Jun-22 22:29N 60°52' E 004°38'715.3
2017-Jun-22 22:00N 60°59' E 004°44'918.2
2017-Jun-22 21:30N 61°04' E 004°59'917.2
2017-Jun-22 21:00N 61°05' E 005°17'917.4
2017-Jun-22 20:30N 61°06' E 005°35'918.6
2017-Jun-22 19:59N 61°09' E 005°54'918.3
2017-Jun-22 19:30N 61°07' E 006°12'917.8
2017-Jun-22 19:00N 61°07' E 006°30'815.0
2017-Jun-22 18:30N 61°10' E 006°45'917.5
2017-Jun-22 18:00N 61°05' E 006°59'817.0
2017-Jun-22 17:30N 60°58' E 007°06'510.9
2017-Jun-22 17:00N 60°52' E 007°08'1 1.4
2017-Jun-22 16:30N 60°52' E 007°07'0 0.0
2017-Jun-22 16:00N 60°52' E 007°07'0 0.0
2017-Jun-22 15:30N 60°52' E 007°07'0 0.0
2017-Jun-22 15:00N 60°52' E 007°07'0 0.0
2017-Jun-22 14:00N 60°52' E 007°07'0 0.0
2017-Jun-22 13:30N 60°52' E 007°07'0 0.0
2017-Jun-22 13:00N 60°52' E 007°07'0 0.0
2017-Jun-22 12:30N 60°52' E 007°07'0 0.0
2017-Jun-22 12:00N 60°52' E 007°07'0 0.0
2017-Jun-22 11:30N 60°52' E 007°07'0 0.0
2017-Jun-22 10:59N 60°52' E 007°07'0 0.0
2017-Jun-22 10:29N 60°52' E 007°07'0 0.0
2017-Jun-22 09:59N 60°52' E 007°07'0 0.0
2017-Jun-22 09:29N 60°52' E 007°07'0 0.0
2017-Jun-22 08:59N 60°52' E 007°07'0 0.0
2017-Jun-22 08:29N 60°52' E 007°07'0 0.0
2017-Jun-22 07:59N 60°52' E 007°07'0 0.0
2017-Jun-22 07:29N 60°52' E 007°07'0 0.0
2017-Jun-22 06:59N 60°52' E 007°07'0 0.0
2017-Jun-22 06:29N 60°52' E 007°07'0 0.0
2017-Jun-22 05:59N 60°52' E 007°07'2 3.4
2017-Jun-22 05:30N 60°53' E 007°09'714.1
2017-Jun-22 05:00N 60°60' E 007°03'816.5
2017-Jun-22 04:30N 61°07' E 006°55'816.5
2017-Jun-22 04:00N 61°11' E 006°40'815.9
2017-Jun-22 03:30N 61°06' E 006°27'916.8
2017-Jun-22 03:00N 61°08' E 006°09'816.9
2017-Jun-22 02:30N 61°08' E 005°52'917.4
2017-Jun-22 02:00N 61°06' E 005°35'816.3
2017-Jun-22 01:30N 61°04' E 005°18'817.0
2017-Jun-22 01:00N 61°10' E 005°05'714.1
2017-Jun-22 00:30N 61°14' E 004°53'917.4
2017-Jun-22 00:00N 61°14' E 004°35'917.2
2017-Jun-21 23:30N 61°21' E 004°24'1019.1
2017-Jun-21 23:00N 61°31' E 004°25'1019.0
2017-Jun-21 22:30N 61°40' E 004°26'918.9
2017-Jun-21 22:00N 61°49' E 004°31'1019.1
2017-Jun-21 21:30N 61°58' E 004°40'918.8
2017-Jun-21 21:00N 62°06' E 004°50'918.6
2017-Jun-21 20:30N 62°14' E 005°00'918.5
2017-Jun-21 20:00N 62°21' E 005°13'1019.0
2017-Jun-21 19:30N 62°26' E 005°30'918.2
2017-Jun-21 19:00N 62°27' E 005°50'816.9
2017-Jun-21 18:30N 62°24' E 006°07'918.1
2017-Jun-21 18:00N 62°25' E 006°26'918.8
2017-Jun-21 17:30N 62°27' E 006°45'816.2
2017-Jun-21 17:00N 62°21' E 006°56'917.7
2017-Jun-21 16:30N 62°12' E 007°02'713.2
2017-Jun-21 15:59N 62°06' E 007°00'5 9.7
2017-Jun-21 15:30N 62°07' E 007°10'1 2.1
2017-Jun-21 14:58N 62°06' E 007°11'0 0.0
2017-Jun-21 13:59N 62°06' E 007°11'0 0.0
2017-Jun-21 13:30N 62°06' E 007°11'0 0.0
2017-Jun-21 13:00N 62°06' E 007°11'0 0.0
2017-Jun-21 12:30N 62°06' E 007°11'0 0.0
2017-Jun-21 12:00N 62°06' E 007°11'0 0.0
2017-Jun-21 11:30N 62°06' E 007°11'0 0.0
2017-Jun-21 11:00N 62°06' E 007°11'0 0.0
2017-Jun-21 10:30N 62°06' E 007°11'0 0.0
2017-Jun-21 10:00N 62°06' E 007°11'0 0.0
2017-Jun-21 09:30N 62°06' E 007°11'0 0.0
2017-Jun-21 08:59N 62°06' E 007°11'0 0.0
2017-Jun-21 08:29N 62°06' E 007°11'0 0.0
2017-Jun-21 07:59N 62°06' E 007°11'0 0.0
2017-Jun-21 07:29N 62°06' E 007°11'0 0.3
2017-Jun-21 07:00N 62°06' E 007°11'5 9.2
2017-Jun-21 06:30N 62°05' E 007°02'3 1.5
2017-Jun-21 04:27N 62°07' E 006°56'613.8
2017-Jun-21 04:00N 62°12' E 007°02'713.8
2017-Jun-21 03:30N 62°19' E 006°57'714.0
2017-Jun-21 03:01N 62°26' E 006°54'713.9
2017-Jun-21 02:30N 62°27' E 006°39'814.7
2017-Jun-21 01:59N 62°24' E 006°24'814.1
2017-Jun-21 01:24N 62°23' E 006°06'811.5
2017-Jun-21 00:44N 62°27' E 005°52'311.2
2017-Jun-21 00:30N 62°27' E 005°46'10917.3
2017-Jun-20 18:14N 60°47' E 004°18'419.4
2017-Jun-20 18:00N 60°46' E 004°27'918.9
2017-Jun-20 17:30N 60°43' E 004°45'713.7
2017-Jun-20 17:00N 60°38' E 004°53'917.4
2017-Jun-20 16:30N 60°29' E 004°59'816.2
2017-Jun-20 16:00N 60°23' E 005°10'4 8.6
2017-Jun-20 15:30N 60°23' E 005°18'0 0.0
2017-Jun-20 15:00N 60°23' E 005°18'0 0.0
2017-Jun-20 14:30N 60°23' E 005°18'0 0.0
2017-Jun-20 13:30N 60°23' E 005°18'0 0.0
2017-Jun-20 13:00N 60°23' E 005°18'0 0.0
2017-Jun-20 12:30N 60°23' E 005°18'0 0.0
2017-Jun-20 12:00N 60°23' E 005°18'0 0.0
2017-Jun-20 11:30N 60°23' E 005°18'0 0.0
2017-Jun-20 11:00N 60°23' E 005°18'0 0.0
2017-Jun-20 10:30N 60°23' E 005°18'0 0.0
2017-Jun-20 10:00N 60°23' E 005°18'0 0.0
2017-Jun-20 09:30N 60°23' E 005°18'0 0.0
2017-Jun-20 09:00N 60°23' E 005°18'0 0.0
2017-Jun-20 08:26N 60°23' E 005°18'0 0.0
2017-Jun-20 07:56N 60°23' E 005°18'0 0.4
2017-Jun-20 07:30N 60°24' E 005°18'4 8.4
2017-Jun-20 07:00N 60°23' E 005°10'714.7
2017-Jun-20 06:30N 60°29' E 004°59'917.5
2017-Jun-20 06:00N 60°37' E 004°53'816.7
2017-Jun-20 05:30N 60°44' E 004°44'612.4
2017-Jun-20 05:00N 60°42' E 004°32'918.3
2017-Jun-20 04:30N 60°33' E 004°24'8919.6
2017-Jun-19 23:57N 59°05' E 004°43'20 9.3
2017-Jun-19 21:46N 58°44' E 004°41'519.2
2017-Jun-19 21:29N 58°41' E 004°48'918.9
2017-Jun-19 21:00N 58°34' E 005°00'917.3
2017-Jun-19 20:30N 58°28' E 005°11'916.7
2017-Jun-19 20:00N 58°22' E 005°23'816.3
2017-Jun-19 19:30N 58°16' E 005°34'916.9
2017-Jun-19 19:00N 58°10' E 005°46'916.7
2017-Jun-19 18:30N 58°05' E 005°58'917.3
2017-Jun-19 18:00N 57°59' E 006°10'917.5
2017-Jun-19 17:30N 57°53' E 006°23'918.1
2017-Jun-19 17:00N 57°47' E 006°36'917.5
2017-Jun-19 16:30N 57°46' E 006°52'917.5
2017-Jun-19 16:00N 57°46' E 007°08'917.9
2017-Jun-19 15:30N 57°45' E 007°25'917.9
2017-Jun-19 15:00N 57°45' E 007°42'1717.5
2017-Jun-19 14:00N 57°46' E 008°14'917.2
2017-Jun-19 13:28N 57°46' E 008°31'3716.4
2017-Jun-19 11:12N 57°48' E 009°41'316.2
2017-Jun-19 11:00N 57°48' E 009°47'816.3
2017-Jun-19 10:30N 57°48' E 010°02'816.1
2017-Jun-19 10:00N 57°49' E 010°17'816.2
2017-Jun-19 09:30N 57°49' E 010°33'815.9
2017-Jun-19 09:00N 57°47' E 010°47'816.3
2017-Jun-19 08:30N 57°42' E 010°59'816.7
2017-Jun-19 08:00N 57°36' E 011°10'917.5
2017-Jun-19 07:30N 57°30' E 011°22'917.4
2017-Jun-19 06:59N 57°22' E 011°30'817.3
2017-Jun-19 06:30N 57°14' E 011°35'917.2
2017-Jun-19 05:59N 57°06' E 011°41'917.5
2017-Jun-19 05:29N 56°58' E 011°46'817.1
2017-Jun-19 05:00N 56°50' E 011°51'815.9
2017-Jun-19 04:29N 56°42' E 011°50'917.7
2017-Jun-19 04:00N 56°34' E 011°42'917.8
2017-Jun-19 03:30N 56°27' E 011°34'917.5
2017-Jun-19 03:00N 56°19' E 011°26'917.5
2017-Jun-19 02:30N 56°12' E 011°18'917.4
2017-Jun-19 02:00N 56°05' E 011°08'  
Track history (hours):
 
Tides and Currents Weather Stations Pressure Air Temp Water Temp Dewpoint Dewpoint Depression Visibility Wind Speed Wind Dir Waves Ship Positions

MSC Magnifica

Last reported at 2017-Jun-29 01:31 UTC. Time now 2017-Jun-29 01:57 UTC.
Position N 59°55' E 025°41'.

Length 293 m; draft 8 m.

Type: Ship. MMSI: 352594000.

Date/timePositionNaut miles runAvg speedWind from/ knotsBaromVisibWave heightAir tempDewpointWater temp
2017-Jun-29 01:31N 59°55' E 025°41'917.9
2017-Jun-29 01:01N 59°57' E 025°58'917.9
2017-Jun-29 00:30N 59°59' E 026°16'917.7
2017-Jun-29 00:01N 60°01' E 026°33'917.7
2017-Jun-28 23:31N 60°00' E 026°50'917.2
2017-Jun-28 23:01N 60°00' E 027°07'917.9
2017-Jun-28 22:30N 60°05' E 027°23'917.6
2017-Jun-28 22:00N 60°10' E 027°38'816.2
2017-Jun-28 21:30N 60°11' E 027°54'917.7
2017-Jun-28 21:00N 60°09' E 028°11'917.2
2017-Jun-28 20:30N 60°04' E 028°26'917.6
2017-Jun-28 20:00N 60°03' E 028°43'918.0
2017-Jun-28 19:30N 60°02' E 029°01'1019.6
2017-Jun-28 19:00N 60°02' E 029°21'510.9
2017-Jun-28 18:30N 60°01' E 029°32'713.8
2017-Jun-28 18:00N 59°59' E 029°45'5 9.9
2017-Jun-28 17:30N 59°57' E 029°53'510.8
2017-Jun-28 17:00N 59°56' E 030°04'3 6.9
2017-Jun-28 16:30N 59°57' E 030°11'0 0.3
2017-Jun-28 16:01N 59°57' E 030°11'0 0.0
2017-Jun-28 15:28N 59°57' E 030°11'0 0.0
2017-Jun-28 15:00N 59°57' E 030°11'0 0.0
2017-Jun-28 13:58N 59°57' E 030°11'0 0.0
2017-Jun-28 13:30N 59°57' E 030°11'0 0.0
2017-Jun-28 13:00N 59°57' E 030°11'0 0.0
2017-Jun-28 12:28N 59°57' E 030°11'0 0.0
2017-Jun-28 11:58N 59°57' E 030°11'0 0.0
2017-Jun-28 11:30N 59°57' E 030°11'0 0.0
2017-Jun-28 10:57N 59°57' E 030°11'0 0.0
2017-Jun-28 10:29N 59°57' E 030°11'0 0.0
2017-Jun-28 09:58N 59°57' E 030°11'0 0.0
2017-Jun-28 09:30N 59°57' E 030°11'0 0.0
2017-Jun-28 08:59N 59°57' E 030°11'0 0.0
2017-Jun-28 08:29N 59°57' E 030°11'0 0.0
2017-Jun-28 07:58N 59°57' E 030°11'0 0.0
2017-Jun-28 07:30N 59°57' E 030°11'0 0.0
2017-Jun-28 06:58N 59°57' E 030°11'0 0.0
2017-Jun-28 06:30N 59°57' E 030°11'0 0.0
2017-Jun-28 06:00N 59°57' E 030°11'0 0.0
2017-Jun-28 05:28N 59°57' E 030°11'0 0.0
2017-Jun-28 04:59N 59°57' E 030°11'0 0.0
2017-Jun-28 04:28N 59°57' E 030°11'0 0.0
2017-Jun-28 03:59N 59°57' E 030°11'0 0.0
2017-Jun-28 03:29N 59°57' E 030°11'0 0.3
2017-Jun-28 03:00N 59°57' E 030°11'4 7.0
2017-Jun-28 02:30N 59°56' E 030°04'5 9.5
2017-Jun-28 02:00N 59°56' E 029°55'510.4
2017-Jun-28 01:30N 59°59' E 029°46'4 8.2
2017-Jun-28 01:00N 60°00' E 029°38'814.7
2017-Jun-28 00:29N 60°02' E 029°23'916.8
2017-Jun-27 23:57N 60°02' E 029°05'613.9
2017-Jun-27 23:30N 60°02' E 028°53'713.8
2017-Jun-27 23:00N 60°02' E 028°39'713.9
2017-Jun-27 22:31N 60°03' E 028°25'713.7
2017-Jun-27 22:01N 60°07' E 028°14'713.7
2017-Jun-27 21:30N 60°09' E 028°01'713.6
2017-Jun-27 21:00N 60°11' E 027°47'714.0
2017-Jun-27 20:31N 60°07' E 027°35'714.2
2017-Jun-27 20:00N 60°04' E 027°23'714.0
2017-Jun-27 19:30N 60°00' E 027°11'612.7
2017-Jun-27 19:00N 59°58' E 026°59'714.1
2017-Jun-27 18:31N 59°59' E 026°45'714.0
2017-Jun-27 18:00N 59°58' E 026°31'714.3
2017-Jun-27 17:31N 59°57' E 026°17'714.2
2017-Jun-27 17:01N 59°54' E 026°04'714.3
2017-Jun-27 16:31N 59°53' E 025°50'714.5
2017-Jun-27 16:00N 59°51' E 025°36'714.3
2017-Jun-27 15:31N 59°50' E 025°22'714.6
2017-Jun-27 15:00N 59°48' E 025°08'612.7
2017-Jun-27 14:30N 59°51' E 024°56'1413.9
2017-Jun-27 13:30N 60°05' E 024°53'4 8.7
2017-Jun-27 13:00N 60°09' E 024°55'0 0.4
2017-Jun-27 12:28N 60°09' E 024°55'0 0.0
2017-Jun-27 11:58N 60°09' E 024°55'0 0.0
2017-Jun-27 11:28N 60°09' E 024°55'0 0.0
2017-Jun-27 10:58N 60°09' E 024°55'0 0.0
2017-Jun-27 10:28N 60°09' E 024°55'0 0.0
2017-Jun-27 09:55N 60°09' E 024°55'0 0.0
2017-Jun-27 09:28N 60°09' E 024°55'0 0.0
2017-Jun-27 08:58N 60°09' E 024°55'0 0.0
2017-Jun-27 08:28N 60°09' E 024°55'0 0.0
2017-Jun-27 07:55N 60°09' E 024°55'0 0.0
2017-Jun-27 07:28N 60°09' E 024°55'0 0.0
2017-Jun-27 06:58N 60°09' E 024°55'0 0.0
2017-Jun-27 06:28N 60°09' E 024°55'0 0.0
2017-Jun-27 05:58N 60°09' E 024°55'0 0.0
2017-Jun-27 05:28N 60°09' E 024°55'0 0.2
2017-Jun-27 05:01N 60°09' E 024°55'5 9.6
2017-Jun-27 04:30N 60°04' E 024°54'612.9
2017-Jun-27 04:00N 59°58' E 024°56'714.8
2017-Jun-27 03:30N 59°51' E 024°54'713.4
2017-Jun-27 03:00N 59°46' E 024°44'815.1
2017-Jun-27 02:31N 59°44' E 024°30'816.1
2017-Jun-27 02:01N 59°42' E 024°14'816.0
2017-Jun-27 01:31N 59°40' E 023°59'816.0
2017-Jun-27 01:01N 59°37' E 023°44'815.9
2017-Jun-27 00:30N 59°35' E 023°29'815.8
2017-Jun-27 00:01N 59°32' E 023°14'815.9
2017-Jun-26 23:31N 59°30' E 022°59'816.0
2017-Jun-26 23:00N 59°28' E 022°44'815.6
2017-Jun-26 22:30N 59°23' E 022°31'815.5
2017-Jun-26 22:00N 59°19' E 022°19'815.8
2017-Jun-26 21:30N 59°14' E 022°07'815.9
2017-Jun-26 21:00N 59°09' E 021°55'816.4
2017-Jun-26 20:30N 59°03' E 021°43'816.4
2017-Jun-26 20:00N 58°57' E 021°33'816.3
2017-Jun-26 19:30N 58°50' E 021°24'816.3
2017-Jun-26 19:00N 58°44' E 021°14'816.5
2017-Jun-26 18:30N 58°37' E 021°04'816.5
2017-Jun-26 18:00N 58°31' E 020°55'18416.1
2017-Jun-26 06:36N 56°13' E 017°09'216.6
2017-Jun-26 06:28N 56°12' E 017°06'816.7
2017-Jun-26 06:00N 56°07' E 016°55'816.5
2017-Jun-26 05:30N 56°03' E 016°43'816.5
2017-Jun-26 05:01N 55°58' E 016°30'816.1
2017-Jun-26 04:30N 55°54' E 016°17'815.8
2017-Jun-26 04:01N 55°50' E 016°06'816.1
2017-Jun-26 03:31N 55°46' E 015°53'816.7
2017-Jun-26 03:00N 55°43' E 015°40'816.8
2017-Jun-26 02:31N 55°38' E 015°27'816.9
2017-Jun-26 02:01N 55°34' E 015°14'816.6
2017-Jun-26 01:30N 55°31' E 015°00'816.5
2017-Jun-26 01:00N 55°27' E 014°47'816.2
2017-Jun-26 00:30N 55°22' E 014°36'816.4
2017-Jun-26 00:00N 55°16' E 014°27'816.4
2017-Jun-25 23:30N 55°09' E 014°19'816.3
2017-Jun-25 23:00N 55°03' E 014°10'816.5
2017-Jun-25 22:30N 54°59' E 013°56'816.8
2017-Jun-25 22:00N 54°57' E 013°43'816.8
2017-Jun-25 21:30N 54°54' E 013°29'1616.6
2017-Jun-25 20:32N 54°49' E 013°02'016.2
2017-Jun-25 20:31N 54°49' E 013°01'2416.2
2017-Jun-25 19:02N 54°38' E 012°25'016.7
2017-Jun-25 19:00N 54°38' E 012°24'2914.7
2017-Jun-25 17:02N 54°11' E 012°06'1 0.1
2017-Jun-25 05:00N 54°10' E 012°06'4 5.3
2017-Jun-25 04:20N 54°13' E 012°04'6 6.5
2017-Jun-25 03:26N 54°18' E 011°59'5 9.0
2017-Jun-25 02:56N 54°22' E 011°56'10 7.2
2017-Jun-25 01:32N 54°28' E 012°10'0 8.4
2017-Jun-25 01:30N 54°28' E 012°11'4 8.5
2017-Jun-25 01:00N 54°33' E 012°12'4 8.1
2017-Jun-25 00:30N 54°36' E 012°15'4 8.1
2017-Jun-25 00:00N 54°40' E 012°19'27 8.1
2017-Jun-24 20:39N 55°04' E 012°39'2 8.3
2017-Jun-24 20:28N 55°06' E 012°39'4 8.5
2017-Jun-24 20:00N 55°10' E 012°38'4 8.8
2017-Jun-24 19:30N 55°14' E 012°38'4 8.6
2017-Jun-24 19:00N 55°18' E 012°37'4 8.6
2017-Jun-24 18:30N 55°23' E 012°38'4 8.7
2017-Jun-24 18:00N 55°27' E 012°40'5 9.2
2017-Jun-24 17:30N 55°31' E 012°42'3 6.5
2017-Jun-24 17:00N 55°35' E 012°42'3 6.7
2017-Jun-24 16:30N 55°38' E 012°42'611.7
2017-Jun-24 16:00N 55°44' E 012°40'1 2.5
2017-Jun-24 15:27N 55°43' E 012°38'0 0.0
2017-Jun-24 15:00N 55°43' E 012°38'0 0.0
2017-Jun-24 13:59N 55°43' E 012°38'0 0.0
2017-Jun-24 13:29N 55°43' E 012°38'0 0.0
2017-Jun-24 12:59N 55°43' E 012°38'0 0.0
2017-Jun-24 12:29N 55°43' E 012°38'0 0.0
2017-Jun-24 11:59N 55°43' E 012°38'0 0.0
2017-Jun-24 11:29N 55°43' E 012°38'0 0.0
2017-Jun-24 10:59N 55°43' E 012°38'0 0.0
2017-Jun-24 10:29N 55°43' E 012°38'0 0.0
2017-Jun-24 09:59N 55°43' E 012°38'0 0.0
2017-Jun-24 09:29N 55°43' E 012°38'0 0.0
2017-Jun-24 08:59N 55°43' E 012°38'0 0.0
2017-Jun-24 08:28N 55°43' E 012°38'0 0.0
2017-Jun-24 07:58N 55°43' E 012°38'0 0.0
2017-Jun-24 07:28N 55°43' E 012°38'0 0.0
2017-Jun-24 06:58N 55°43' E 012°38'0 0.0
2017-Jun-24 06:31N 55°43' E 012°38'3 5.1
2017-Jun-24 06:01N 55°45' E 012°41'714.6
2017-Jun-24 05:31N 55°52' E 012°45'815.3
2017-Jun-24 05:00N 55°59' E 012°41'714.8
2017-Jun-24 04:31N 56°06' E 012°34'815.4
2017-Jun-24 04:01N 56°10' E 012°23'714.9
2017-Jun-24 03:31N 56°14' E 012°12'714.4
2017-Jun-24 03:00N 56°19' E 012°03'4315.5
2017-Jun-24 00:15N 57°01' E 011°42'415.5
2017-Jun-23 23:58N 57°05' E 011°39'715.3
2017-Jun-23 23:30N 57°11' E 011°35'815.3
2017-Jun-23 23:00N 57°19' E 011°30'815.3
2017-Jun-23 22:30N 57°26' E 011°25'714.7
2017-Jun-23 22:00N 57°31' E 011°17'815.4
2017-Jun-23 21:30N 57°37' E 011°06'815.5
2017-Jun-23 20:58N 57°42' E 010°54'715.2
2017-Jun-23 20:30N 57°47' E 010°44'815.0
2017-Jun-23 20:00N 57°47' E 010°30'815.5
2017-Jun-23 19:30N 57°46' E 010°16'3315.5
2017-Jun-23 17:23N 57°44' E 009°14'616.0
2017-Jun-23 16:59N 57°44' E 009°03'1316.5
2017-Jun-23 16:12N 57°43' E 008°38'416.3
2017-Jun-23 15:58N 57°43' E 008°31'3216.1
2017-Jun-23 14:00N 57°42' E 007°32'815.9
2017-Jun-23 13:30N 57°42' E 007°17'816.2
2017-Jun-23 13:00N 57°42' E 007°02'816.3
2017-Jun-23 12:30N 57°42' E 006°47'815.8
2017-Jun-23 12:00N 57°44' E 006°32'815.9
2017-Jun-23 11:30N 57°49' E 006°21'815.8
2017-Jun-23 11:00N 57°54' E 006°09'815.6
2017-Jun-23 10:30N 57°59' E 005°58'816.1
2017-Jun-23 09:59N 58°04' E 005°46'916.8
2017-Jun-23 09:28N 58°10' E 005°34'916.3
2017-Jun-23 08:56N 58°16' E 005°21'816.5
2017-Jun-23 08:28N 58°21' E 005°11'816.3
2017-Jun-23 08:00N 58°27' E 005°01'816.0
2017-Jun-23 07:30N 58°32' E 004°50'816.3
2017-Jun-23 07:00N 58°38' E 004°39'12416.3
2017-Jun-22 23:23N 60°42' E 004°20'617.0
2017-Jun-22 23:01N 60°48' E 004°24'815.1
2017-Jun-22 22:29N 60°52' E 004°38'715.3
2017-Jun-22 22:00N 60°59' E 004°44'918.2
2017-Jun-22 21:30N 61°04' E 004°59'917.2
2017-Jun-22 21:00N 61°05' E 005°17'917.4
2017-Jun-22 20:30N 61°06' E 005°35'918.6
2017-Jun-22 19:59N 61°09' E 005°54'918.3
2017-Jun-22 19:30N 61°07' E 006°12'917.8
2017-Jun-22 19:00N 61°07' E 006°30'815.0
2017-Jun-22 18:30N 61°10' E 006°45'917.5
2017-Jun-22 18:00N 61°05' E 006°59'817.0
2017-Jun-22 17:30N 60°58' E 007°06'510.9
2017-Jun-22 17:00N 60°52' E 007°08'1 1.4
2017-Jun-22 16:30N 60°52' E 007°07'0 0.0
2017-Jun-22 16:00N 60°52' E 007°07'0 0.0
2017-Jun-22 15:30N 60°52' E 007°07'0 0.0
2017-Jun-22 15:00N 60°52' E 007°07'0 0.0
2017-Jun-22 14:00N 60°52' E 007°07'0 0.0
2017-Jun-22 13:30N 60°52' E 007°07'0 0.0
2017-Jun-22 13:00N 60°52' E 007°07'0 0.0
2017-Jun-22 12:30N 60°52' E 007°07'0 0.0
2017-Jun-22 12:00N 60°52' E 007°07'0 0.0
2017-Jun-22 11:30N 60°52' E 007°07'0 0.0
2017-Jun-22 10:59N 60°52' E 007°07'0 0.0
2017-Jun-22 10:29N 60°52' E 007°07'0 0.0
2017-Jun-22 09:59N 60°52' E 007°07'0 0.0
2017-Jun-22 09:29N 60°52' E 007°07'0 0.0
2017-Jun-22 08:59N 60°52' E 007°07'0 0.0
2017-Jun-22 08:29N 60°52' E 007°07'0 0.0
2017-Jun-22 07:59N 60°52' E 007°07'0 0.0
2017-Jun-22 07:29N 60°52' E 007°07'0 0.0
2017-Jun-22 06:59N 60°52' E 007°07'0 0.0
2017-Jun-22 06:29N 60°52' E 007°07'0 0.0
2017-Jun-22 05:59N 60°52' E 007°07'2 3.4
2017-Jun-22 05:30N 60°53' E 007°09'714.1
2017-Jun-22 05:00N 60°60' E 007°03'816.5
2017-Jun-22 04:30N 61°07' E 006°55'816.5
2017-Jun-22 04:00N 61°11' E 006°40'815.9
2017-Jun-22 03:30N 61°06' E 006°27'916.8
2017-Jun-22 03:00N 61°08' E 006°09'816.9
2017-Jun-22 02:30N 61°08' E 005°52'917.4
2017-Jun-22 02:00N 61°06' E 005°35'816.3
2017-Jun-22 01:30N 61°04' E 005°18'817.0
2017-Jun-22 01:00N 61°10' E 005°05'714.1
2017-Jun-22 00:30N 61°14' E 004°53'917.4
2017-Jun-22 00:00N 61°14' E 004°35'917.2
2017-Jun-21 23:30N 61°21' E 004°24'1019.1
2017-Jun-21 23:00N 61°31' E 004°25'1019.0
2017-Jun-21 22:30N 61°40' E 004°26'918.9
2017-Jun-21 22:00N 61°49' E 004°31'1019.1
2017-Jun-21 21:30N 61°58' E 004°40'918.8
2017-Jun-21 21:00N 62°06' E 004°50'918.6
2017-Jun-21 20:30N 62°14' E 005°00'918.5
2017-Jun-21 20:00N 62°21' E 005°13'1019.0
2017-Jun-21 19:30N 62°26' E 005°30'918.2
2017-Jun-21 19:00N 62°27' E 005°50'816.9
2017-Jun-21 18:30N 62°24' E 006°07'918.1
2017-Jun-21 18:00N 62°25' E 006°26'918.8
2017-Jun-21 17:30N 62°27' E 006°45'816.2
2017-Jun-21 17:00N 62°21' E 006°56'917.7
2017-Jun-21 16:30N 62°12' E 007°02'713.2
2017-Jun-21 15:59N 62°06' E 007°00'5 9.7
2017-Jun-21 15:30N 62°07' E 007°10'1 2.1
2017-Jun-21 14:58N 62°06' E 007°11'0 0.0
2017-Jun-21 13:59N 62°06' E 007°11'0 0.0
2017-Jun-21 13:30N 62°06' E 007°11'0 0.0
2017-Jun-21 13:00N 62°06' E 007°11'0 0.0
2017-Jun-21 12:30N 62°06' E 007°11'0 0.0
2017-Jun-21 12:00N 62°06' E 007°11'0 0.0
2017-Jun-21 11:30N 62°06' E 007°11'0 0.0
2017-Jun-21 11:00N 62°06' E 007°11'0 0.0
2017-Jun-21 10:30N 62°06' E 007°11'0 0.0
2017-Jun-21 10:00N 62°06' E 007°11'0 0.0
2017-Jun-21 09:30N 62°06' E 007°11'0 0.0
2017-Jun-21 08:59N 62°06' E 007°11'0 0.0
2017-Jun-21 08:29N 62°06' E 007°11'0 0.0
2017-Jun-21 07:59N 62°06' E 007°11'0 0.0
2017-Jun-21 07:29N 62°06' E 007°11'0 0.3
2017-Jun-21 07:00N 62°06' E 007°11'5 9.2
2017-Jun-21 06:30N 62°05' E 007°02'3 1.5
2017-Jun-21 04:27N 62°07' E 006°56'613.8
2017-Jun-21 04:00N 62°12' E 007°02'713.8
2017-Jun-21 03:30N 62°19' E 006°57'714.0
2017-Jun-21 03:01N 62°26' E 006°54'713.9
2017-Jun-21 02:30N 62°27' E 006°39'814.7
2017-Jun-21 01:59N 62°24' E 006°24'814.1
2017-Jun-21 01:24N 62°23' E 006°06'811.5
2017-Jun-21 00:44N 62°27' E 005°52'311.2
2017-Jun-21 00:30N 62°27' E 005°46'10917.3
2017-Jun-20 18:14N 60°47' E 004°18'419.4
2017-Jun-20 18:00N 60°46' E 004°27'918.9
2017-Jun-20 17:30N 60°43' E 004°45'713.7
2017-Jun-20 17:00N 60°38' E 004°53'917.4
2017-Jun-20 16:30N 60°29' E 004°59'816.2
2017-Jun-20 16:00N 60°23' E 005°10'4 8.6
2017-Jun-20 15:30N 60°23' E 005°18'0 0.0
2017-Jun-20 15:00N 60°23' E 005°18'0 0.0
2017-Jun-20 14:30N 60°23' E 005°18'0 0.0
2017-Jun-20 13:30N 60°23' E 005°18'0 0.0
2017-Jun-20 13:00N 60°23' E 005°18'0 0.0
2017-Jun-20 12:30N 60°23' E 005°18'0 0.0
2017-Jun-20 12:00N 60°23' E 005°18'0 0.0
2017-Jun-20 11:30N 60°23' E 005°18'0 0.0
2017-Jun-20 11:00N 60°23' E 005°18'0 0.0
2017-Jun-20 10:30N 60°23' E 005°18'0 0.0
2017-Jun-20 10:00N 60°23' E 005°18'0 0.0
2017-Jun-20 09:30N 60°23' E 005°18'0 0.0
2017-Jun-20 09:00N 60°23' E 005°18'0 0.0
2017-Jun-20 08:26N 60°23' E 005°18'0 0.0
2017-Jun-20 07:56N 60°23' E 005°18'0 0.4
2017-Jun-20 07:30N 60°24' E 005°18'4 8.4
2017-Jun-20 07:00N 60°23' E 005°10'714.7
2017-Jun-20 06:30N 60°29' E 004°59'917.5
2017-Jun-20 06:00N 60°37' E 004°53'816.7
2017-Jun-20 05:30N 60°44' E 004°44'612.4
2017-Jun-20 05:00N 60°42' E 004°32'918.3
2017-Jun-20 04:30N 60°33' E 004°24'8919.6
2017-Jun-19 23:57N 59°05' E 004°43'20 9.3
2017-Jun-19 21:46N 58°44' E 004°41'519.2
2017-Jun-19 21:29N 58°41' E 004°48'918.9
2017-Jun-19 21:00N 58°34' E 005°00'917.3
2017-Jun-19 20:30N 58°28' E 005°11'916.7
2017-Jun-19 20:00N 58°22' E 005°23'816.3
2017-Jun-19 19:30N 58°16' E 005°34'916.9
2017-Jun-19 19:00N 58°10' E 005°46'916.7
2017-Jun-19 18:30N 58°05' E 005°58'917.3
2017-Jun-19 18:00N 57°59' E 006°10'917.5
2017-Jun-19 17:30N 57°53' E 006°23'918.1
2017-Jun-19 17:00N 57°47' E 006°36'917.5
2017-Jun-19 16:30N 57°46' E 006°52'917.5
2017-Jun-19 16:00N 57°46' E 007°08'917.9
2017-Jun-19 15:30N 57°45' E 007°25'917.9
2017-Jun-19 15:00N 57°45' E 007°42'1717.5
2017-Jun-19 14:00N 57°46' E 008°14'917.2
2017-Jun-19 13:28N 57°46' E 008°31'3716.4
2017-Jun-19 11:12N 57°48' E 009°41'316.2
2017-Jun-19 11:00N 57°48' E 009°47'816.3
2017-Jun-19 10:30N 57°48' E 010°02'816.1
2017-Jun-19 10:00N 57°49' E 010°17'816.2
2017-Jun-19 09:30N 57°49' E 010°33'815.9
2017-Jun-19 09:00N 57°47' E 010°47'816.3
2017-Jun-19 08:30N 57°42' E 010°59'816.7
2017-Jun-19 08:00N 57°36' E 011°10'917.5
2017-Jun-19 07:30N 57°30' E 011°22'917.4
2017-Jun-19 06:59N 57°22' E 011°30'817.3
2017-Jun-19 06:30N 57°14' E 011°35'917.2
2017-Jun-19 05:59N 57°06' E 011°41'917.5
2017-Jun-19 05:29N 56°58' E 011°46'817.1
2017-Jun-19 05:00N 56°50' E 011°51'815.9
2017-Jun-19 04:29N 56°42' E 011°50'917.7
2017-Jun-19 04:00N 56°34' E 011°42'917.8
2017-Jun-19 03:30N 56°27' E 011°34'917.5
2017-Jun-19 03:00N 56°19' E 011°26'917.5
2017-Jun-19 02:30N 56°12' E 011°18'917.4
2017-Jun-19 02:00N 56°05' E 011°08'  

Dump ship's entire track history